Time;durP1;ratioP1;P1;durP2;ratioP2;P2;SDS_P1;SDS_P2;PMS_P1;PMS_P2;Temp;Humidity;BMP_temperature;BMP_pressure;BME280_temperature;BME280_humidity;BME280_pressure;Samples;Min_cycle;Max_cycle;Signal;HPM_P1;HPM_P2
2023/11/23 00:00:12;;;;;;;32.40;6.15;;;5.50;94.50;;;;;;5028859;28;20171;-82
2023/11/23 00:02:40;;;;;;;29.23;6.90;;;5.50;94.40;;;;;;5046422;28;20170;-82
2023/11/23 00:05:09;;;;;;;29.48;5.85;;;5.60;95.10;;;;;;5047125;28;20710;-82
2023/11/23 00:07:37;;;;;;;31.33;5.38;;;5.60;97.20;;;;;;5046585;28;20205;-82
2023/11/23 00:10:04;;;;;;;30.05;6.75;;;5.70;96.70;;;;;;5027935;28;20260;-82
2023/11/23 00:12:30;;;;;;;30.02;6.15;;;5.70;96.60;;;;;;5028297;28;20190;-82
2023/11/23 00:14:56;;;;;;;25.75;5.05;;;5.80;96.40;;;;;;5028866;28;20186;-82
2023/11/23 00:17:22;;;;;;;29.10;6.40;;;5.90;97.90;;;;;;5046096;28;20547;-82
2023/11/23 00:19:48;;;;;;;30.47;6.53;;;5.90;99.30;;;;;;5047399;28;20209;-82
2023/11/23 00:22:16;;;;;;;28.25;6.50;;;6.00;99.90;;;;;;5047443;28;20166;-82
2023/11/23 00:24:42;;;;;;;28.27;5.22;;;6.00;99.90;;;;;;5046905;28;20186;-82
2023/11/23 00:27:08;;;;;;;28.97;5.50;;;6.10;99.90;;;;;;5046397;28;20166;-82
2023/11/23 00:29:34;;;;;;;28.77;5.88;;;6.20;99.90;;;;;;5047859;28;20193;-82
2023/11/23 00:32:00;;;;;;;29.37;6.20;;;6.20;99.90;;;;;;5045757;28;20189;-82
2023/11/23 00:34:25;;;;;;;31.77;6.50;;;6.20;99.90;;;;;;5029581;28;20197;-82
2023/11/23 00:36:51;;;;;;;31.00;6.20;;;6.30;99.90;;;;;;5027426;28;20162;-82
2023/11/23 00:39:17;;;;;;;28.77;6.30;;;6.30;99.90;;;;;;5028115;28;20174;-82
2023/11/23 00:41:46;;;;;;;29.75;6.70;;;6.30;99.90;;;;;;5045694;28;20189;-82
2023/11/23 00:44:12;;;;;;;34.83;6.22;;;6.40;99.90;;;;;;5046324;28;20185;-82
2023/11/23 00:46:37;;;;;;;32.70;6.73;;;6.40;99.90;;;;;;5046902;28;20161;-82
2023/11/23 00:49:04;;;;;;;28.60;5.77;;;6.40;99.90;;;;;;5046413;28;20529;-82
2023/11/23 00:51:32;;;;;;;32.88;7.28;;;6.40;99.90;;;;;;5046769;28;20185;-82
2023/11/23 00:53:58;;;;;;;28.65;5.65;;;6.40;99.90;;;;;;5028516;28;20267;-82
2023/11/23 00:56:24;;;;;;;32.35;4.70;;;6.50;99.90;;;;;;5028614;28;20601;-82
2023/11/23 00:58:52;;;;;;;30.10;5.70;;;6.40;99.90;;;;;;5028124;28;20162;-82
2023/11/23 01:01:18;;;;;;;29.58;4.70;;;6.40;99.90;;;;;;5046235;28;20673;-82
2023/11/23 01:03:44;;;;;;;36.88;5.05;;;6.40;99.90;;;;;;5029128;28;20627;-82
2023/11/23 01:06:10;;;;;;;28.10;5.20;;;6.50;99.90;;;;;;5046224;28;20166;-82
2023/11/23 01:08:36;;;;;;;32.58;5.20;;;6.50;99.90;;;;;;5027831;28;20166;-82
2023/11/23 01:11:02;;;;;;;31.13;6.13;;;6.60;99.90;;;;;;5048863;28;20192;-82
2023/11/23 01:13:29;;;;;;;29.87;5.63;;;6.60;99.90;;;;;;5028098;28;20697;-82
2023/11/23 01:15:55;;;;;;;30.05;6.10;;;6.60;99.90;;;;;;5028412;28;20413;-82
2023/11/23 01:18:21;;;;;;;34.45;6.03;;;6.70;99.90;;;;;;5046073;28;20162;-82
2023/11/23 01:20:48;;;;;;;31.30;5.30;;;6.70;99.90;;;;;;5046219;28;20177;-83
2023/11/23 01:23:13;;;;;;;30.40;5.78;;;6.70;99.90;;;;;;5045320;28;20166;-82
2023/11/23 01:25:42;;;;;;;30.30;5.40;;;6.80;99.90;;;;;;5046503;28;20169;-82
2023/11/23 01:28:08;;;;;;;34.75;5.80;;;6.80;99.90;;;;;;5027929;28;20177;-83
2023/11/23 01:30:33;;;;;;;30.37;5.63;;;6.90;99.90;;;;;;5046193;28;20162;-82
2023/11/23 01:32:59;;;;;;;32.83;5.63;;;6.90;99.90;;;;;;5046050;28;20169;-82
2023/11/23 01:35:26;;;;;;;29.10;4.60;;;7.00;99.90;;;;;;5045281;28;20186;-82
2023/11/23 01:37:51;;;;;;;28.65;5.35;;;7.00;99.90;;;;;;5046189;28;20193;-82
2023/11/23 01:40:17;;;;;;;32.10;6.13;;;7.10;99.90;;;;;;5028854;28;20181;-83
2023/11/23 01:42:44;;;;;;;29.60;5.10;;;7.10;99.90;;;;;;5047260;28;20174;-82
2023/11/23 01:45:10;;;;;;;33.05;6.13;;;7.10;99.90;;;;;;5046702;28;20184;-83
2023/11/23 01:47:42;;;;;;;30.00;4.78;;;7.10;99.90;;;;;;5028878;28;20174;-83
2023/11/23 01:50:09;;;;;;;29.70;5.53;;;7.10;99.90;;;;;;5045942;28;20205;-83
2023/11/23 01:52:35;;;;;;;29.45;5.75;;;7.10;99.90;;;;;;5046646;28;20193;-82
2023/11/23 01:55:02;;;;;;;29.17;5.30;;;7.10;99.90;;;;;;5045897;28;20202;-82
2023/11/23 01:57:34;;;;;;;34.33;5.68;;;7.20;99.90;;;;;;5028232;28;20173;-82
2023/11/23 02:00:01;;;;;;;31.85;7.10;;;7.20;99.90;;;;;;5045751;28;20238;-82
2023/11/23 02:02:29;;;;;;;32.65;5.93;;;7.20;99.90;;;;;;5044908;28;20172;-83
2023/11/23 02:04:58;;;;;;;33.17;7.80;;;7.20;99.90;;;;;;5046146;28;20186;-83
2023/11/23 02:07:23;;;;;;;28.85;5.75;;;7.30;99.90;;;;;;5047052;28;20196;-82
2023/11/23 02:09:49;;;;;;;29.73;6.50;;;7.30;99.90;;;;;;5046431;28;20174;-83
2023/11/23 02:12:17;;;;;;;37.33;7.33;;;7.30;99.90;;;;;;5046442;28;20302;-82
2023/11/23 02:14:45;;;;;;;34.25;6.75;;;7.30;99.90;;;;;;5028649;28;20191;-82
2023/11/23 02:17:21;;;;;;;31.27;6.82;;;7.30;99.90;;;;;;5028765;28;20211;-83
2023/11/23 02:19:48;;;;;;;31.88;6.65;;;7.30;99.90;;;;;;5046327;28;20162;-83
2023/11/23 02:22:17;;;;;;;32.50;6.57;;;7.30;99.90;;;;;;5046959;28;20166;-82
2023/11/23 02:24:49;;;;;;;33.15;8.00;;;7.40;99.90;;;;;;5049084;28;20196;-82
2023/11/23 02:27:17;;;;;;;34.13;8.10;;;7.40;99.90;;;;;;5033982;28;20181;-82
2023/11/23 02:29:43;;;;;;;31.15;6.53;;;7.40;99.90;;;;;;5050330;28;20264;-83
2023/11/23 02:32:09;;;;;;;32.23;7.20;;;7.50;99.90;;;;;;5049301;28;20185;-82
2023/11/23 02:34:36;;;;;;;36.83;7.93;;;7.50;99.90;;;;;;5051160;28;20182;-83
2023/11/23 02:37:02;;;;;;;33.85;7.18;;;7.50;99.90;;;;;;5033583;28;20166;-82
2023/11/23 02:39:28;;;;;;;34.97;7.30;;;7.50;99.90;;;;;;5050534;28;20170;-82
2023/11/23 02:41:58;;;;;;;30.73;7.38;;;7.50;99.90;;;;;;5051277;28;20166;-82
2023/11/23 02:44:24;;;;;;;33.78;6.63;;;7.50;99.90;;;;;;5036943;28;20261;-82
2023/11/23 02:46:50;;;;;;;33.07;7.60;;;7.50;99.90;;;;;;5032551;28;20177;-82
2023/11/23 02:49:16;;;;;;;34.45;6.88;;;7.60;99.90;;;;;;5051135;28;20767;-82
2023/11/23 02:51:45;;;;;;;36.05;7.57;;;7.60;99.90;;;;;;5049891;28;20190;-83
2023/11/23 02:54:11;;;;;;;34.92;7.07;;;7.60;99.90;;;;;;5050470;28;20217;-82
2023/11/23 02:56:37;;;;;;;35.83;8.35;;;7.60;99.90;;;;;;5050038;28;20159;-82
2023/11/23 02:59:03;;;;;;;34.70;7.10;;;7.60;99.90;;;;;;5051637;28;20165;-83
2023/11/23 03:01:32;;;;;;;34.72;7.72;;;7.50;99.90;;;;;;5050803;28;20407;-83
2023/11/23 03:03:58;;;;;;;33.33;7.75;;;7.60;99.90;;;;;;5032927;28;20205;-83
2023/11/23 03:06:24;;;;;;;33.70;7.07;;;7.60;99.90;;;;;;5051365;28;20193;-83
2023/11/23 03:08:51;;;;;;;33.60;7.40;;;7.60;99.90;;;;;;5050830;28;20169;-83
2023/11/23 03:11:26;;;;;;;34.58;7.47;;;7.60;99.90;;;;;;5051072;28;20565;-83
2023/11/23 03:13:57;;;;;;;34.33;7.90;;;7.70;99.90;;;;;;5050705;28;20197;-83
2023/11/23 03:16:24;;;;;;;33.85;7.10;;;7.70;99.90;;;;;;5051203;28;20608;-82
2023/11/23 03:18:50;;;;;;;34.45;7.38;;;7.70;99.90;;;;;;5032454;28;20172;-83
2023/11/23 03:21:16;;;;;;;39.08;7.57;;;7.70;99.90;;;;;;5049264;28;20678;-83
2023/11/23 03:23:42;;;;;;;35.60;7.80;;;7.70;99.90;;;;;;5048206;28;20197;-83
2023/11/23 03:26:09;;;;;;;36.50;8.18;;;7.70;99.90;;;;;;5048652;28;20197;-83
2023/11/23 03:28:35;;;;;;;34.58;7.88;;;7.70;99.90;;;;;;5049099;28;20194;-83
2023/11/23 03:31:00;;;;;;;33.17;8.00;;;7.70;99.90;;;;;;5049808;28;20189;-83
2023/11/23 03:33:27;;;;;;;37.10;8.03;;;7.70;99.90;;;;;;5030997;28;20674;-83
2023/11/23 03:35:53;;;;;;;34.60;8.32;;;7.70;99.90;;;;;;5048376;28;20170;-82
2023/11/23 03:38:19;;;;;;;35.57;8.03;;;7.80;99.90;;;;;;5032413;28;20196;-83
2023/11/23 03:40:45;;;;;;;38.20;8.13;;;7.80;99.90;;;;;;5048045;28;20455;-83
2023/11/23 03:43:11;;;;;;;35.07;7.37;;;7.80;99.90;;;;;;5048119;28;20181;-83
2023/11/23 03:45:37;;;;;;;34.80;7.85;;;7.80;99.90;;;;;;5048806;28;20582;-83
2023/11/23 03:48:03;;;;;;;33.30;7.40;;;7.80;99.90;;;;;;5048074;28;20169;-83
2023/11/23 03:50:29;;;;;;;34.67;8.13;;;7.90;99.90;;;;;;5030559;28;20265;-83
2023/11/23 03:52:55;;;;;;;35.00;8.60;;;7.90;99.90;;;;;;5048425;28;20196;-83
2023/11/23 03:55:22;;;;;;;39.75;9.25;;;8.00;99.90;;;;;;5030000;28;20440;-83
2023/11/23 03:57:48;;;;;;;32.33;6.97;;;8.00;99.90;;;;;;5030704;28;20180;-82
2023/11/23 04:00:14;;;;;;;33.00;7.50;;;8.00;99.90;;;;;;5047555;28;20190;-83
2023/11/23 04:02:40;;;;;;;33.20;8.07;;;8.00;99.90;;;;;;5048191;28;20487;-83
2023/11/23 04:05:09;;;;;;;33.47;8.20;;;8.10;99.90;;;;;;5048096;28;20189;-83
2023/11/23 04:07:34;;;;;;;36.03;7.40;;;8.10;99.90;;;;;;5047765;28;20170;-83
2023/11/23 04:10:02;;;;;;;36.17;8.20;;;8.10;99.90;;;;;;5048331;28;20168;-82
2023/11/23 04:12:28;;;;;;;35.15;8.05;;;8.10;99.90;;;;;;5030988;28;20655;-83
2023/11/23 04:14:54;;;;;;;37.90;8.25;;;8.10;99.90;;;;;;5031054;28;20190;-82
2023/11/23 04:17:22;;;;;;;33.90;7.70;;;8.10;99.90;;;;;;5049410;28;20184;-83
2023/11/23 04:19:48;;;;;;;39.17;8.40;;;8.10;99.90;;;;;;5048803;28;20162;-83
2023/11/23 04:22:14;;;;;;;38.37;8.80;;;8.20;99.90;;;;;;5048691;28;20219;-83
2023/11/23 04:24:41;;;;;;;35.97;7.27;;;8.10;99.90;;;;;;5047787;28;20427;-83
2023/11/23 04:27:08;;;;;;;34.22;8.90;;;8.20;99.90;;;;;;5031634;28;20782;-83
2023/11/23 04:29:34;;;;;;;36.30;9.15;;;8.20;99.90;;;;;;5047323;28;20174;-83
2023/11/23 04:32:00;;;;;;;39.33;10.10;;;8.20;99.90;;;;;;5046678;28;20639;-82
2023/11/23 04:34:27;;;;;;;39.03;9.27;;;8.20;99.90;;;;;;5046315;28;20189;-83
2023/11/23 04:36:53;;;;;;;33.75;8.65;;;8.20;99.90;;;;;;5029717;28;20174;-83
2023/11/23 04:39:19;;;;;;;36.27;8.40;;;8.20;99.90;;;;;;5048025;28;20192;-83
2023/11/23 04:41:44;;;;;;;39.30;8.60;;;8.20;99.90;;;;;;5029691;28;20173;-83
2023/11/23 04:44:10;;;;;;;39.20;8.70;;;8.20;99.90;;;;;;5048103;28;20443;-83
2023/11/23 04:46:36;;;;;;;40.87;10.23;;;8.20;99.90;;;;;;5046161;28;20178;-83
2023/11/23 04:49:04;;;;;;;37.30;10.47;;;8.20;99.90;;;;;;5029750;28;20178;-83
2023/11/23 04:51:33;;;;;;;38.42;9.55;;;8.30;99.90;;;;;;5048107;28;20259;-83
2023/11/23 04:53:59;;;;;;;37.20;9.07;;;8.30;99.90;;;;;;5046482;28;20283;-83
2023/11/23 04:56:25;;;;;;;35.47;9.03;;;8.30;99.90;;;;;;5048795;28;20170;-83
2023/11/23 04:58:50;;;;;;;36.33;10.38;;;8.30;99.90;;;;;;5029398;28;20166;-83
2023/11/23 05:01:16;;;;;;;37.67;9.60;;;8.30;99.90;;;;;;5046906;28;20170;-83
2023/11/23 05:03:42;;;;;;;39.10;10.30;;;8.30;99.90;;;;;;5029605;28;20189;-83
2023/11/23 05:06:08;;;;;;;38.30;10.93;;;8.30;99.90;;;;;;5029523;28;20972;-83
2023/11/23 05:08:34;;;;;;;36.13;9.97;;;8.30;99.90;;;;;;5046424;28;20694;-83
2023/11/23 05:11:01;;;;;;;41.65;9.05;;;8.40;99.90;;;;;;5045058;28;20454;-83
2023/11/23 05:13:29;;;;;;;38.72;11.80;;;8.40;99.90;;;;;;5045788;28;20189;-83
2023/11/23 05:15:55;;;;;;;38.53;10.77;;;8.40;99.90;;;;;;5029647;28;20172;-83
2023/11/23 05:18:20;;;;;;;48.40;9.53;;;8.40;99.90;;;;;;5046736;28;20182;-83
2023/11/23 05:20:46;;;;;;;38.00;10.07;;;8.50;99.90;;;;;;5046583;28;20215;-83
2023/11/23 05:23:12;;;;;;;38.97;10.20;;;8.50;99.90;;;;;;5045915;28;20185;-83
2023/11/23 05:25:37;;;;;;;35.10;9.43;;;8.50;99.90;;;;;;5045359;28;20300;-83
2023/11/23 05:28:03;;;;;;;40.80;10.27;;;8.50;99.90;;;;;;5045363;28;20159;-84
2023/11/23 05:30:32;;;;;;;37.40;8.70;;;8.50;99.90;;;;;;5047431;28;20161;-83
2023/11/23 05:33:00;;;;;;;39.47;9.80;;;8.50;99.90;;;;;;5027640;28;20201;-83
2023/11/23 05:35:27;;;;;;;39.42;9.65;;;8.50;99.90;;;;;;5047178;28;20186;-83
2023/11/23 05:37:56;;;;;;;34.05;8.65;;;8.50;99.90;;;;;;5045612;28;20165;-84
2023/11/23 05:40:28;;;;;;;32.78;8.60;;;8.50;99.90;;;;;;5028122;28;20721;-83
2023/11/23 05:42:53;;;;;;;34.88;9.40;;;8.50;99.90;;;;;;5046199;28;20665;-83
2023/11/23 05:45:19;;;;;;;36.90;9.77;;;8.50;99.90;;;;;;5046135;28;20189;-83
2023/11/23 05:47:46;;;;;;;37.60;9.47;;;8.50;99.90;;;;;;5029127;28;20170;-83
2023/11/23 05:50:12;;;;;;;38.40;9.90;;;8.50;99.90;;;;;;5031460;28;20177;-83
2023/11/23 05:52:39;;;;;;;37.10;8.93;;;8.60;99.90;;;;;;5046978;28;20192;-83
2023/11/23 05:55:05;;;;;;;36.30;9.40;;;8.60;99.90;;;;;;5029321;28;20452;-83
2023/11/23 05:57:33;;;;;;;34.10;8.17;;;8.60;99.90;;;;;;5047454;28;20521;-83
2023/11/23 05:59:59;;;;;;;35.28;9.15;;;8.60;99.90;;;;;;5027912;28;20416;-83
2023/11/23 06:02:27;;;;;;;40.23;8.53;;;8.60;99.90;;;;;;5046371;28;20178;-83
2023/11/23 06:04:53;;;;;;;38.58;9.68;;;8.60;99.90;;;;;;5046887;28;20182;-83
2023/11/23 06:07:18;;;;;;;36.90;9.60;;;8.70;99.90;;;;;;5045668;28;20701;-83
2023/11/23 06:09:44;;;;;;;36.90;8.97;;;8.70;99.90;;;;;;5046764;28;20543;-83
2023/11/23 06:12:10;;;;;;;40.03;11.60;;;8.70;99.90;;;;;;5045214;28;20555;-83
2023/11/23 06:14:39;;;;;;;34.93;8.20;;;8.70;99.90;;;;;;5043666;28;20529;-83
2023/11/23 06:17:10;;;;;;;36.67;8.45;;;8.70;99.90;;;;;;5045797;28;20162;-83
2023/11/23 06:19:39;;;;;;;35.45;8.25;;;8.70;99.90;;;;;;5027310;28;20242;-83
2023/11/23 06:22:05;;;;;;;36.65;10.00;;;8.70;99.90;;;;;;5045845;28;20170;-83
2023/11/23 06:24:33;;;;;;;36.03;9.50;;;8.70;99.90;;;;;;5043912;28;20194;-83
2023/11/23 06:26:59;;;;;;;39.10;10.80;;;8.70;99.90;;;;;;5045434;28;20175;-83
2023/11/23 06:29:28;;;;;;;37.77;10.33;;;8.70;99.90;;;;;;5045686;28;20194;-83
2023/11/23 06:31:56;;;;;;;37.38;10.18;;;8.70;99.90;;;;;;5048283;28;20194;-83
2023/11/23 06:34:22;;;;;;;35.72;9.05;;;8.70;99.90;;;;;;5047444;28;20174;-83
2023/11/23 06:36:50;;;;;;;39.53;10.38;;;8.80;99.90;;;;;;5046190;28;20192;-83
2023/11/23 06:39:23;;;;;;;42.08;10.52;;;8.80;99.90;;;;;;5047589;28;20170;-83
2023/11/23 06:41:54;;;;;;;39.65;10.43;;;8.80;99.90;;;;;;5047042;28;20150;-83
2023/11/23 06:44:20;;;;;;;39.97;9.98;;;8.80;99.90;;;;;;5029316;28;20249;-83
2023/11/23 06:46:46;;;;;;;38.28;10.65;;;8.80;99.90;;;;;;5047507;28;20162;-83
2023/11/23 06:49:12;;;;;;;40.17;11.40;;;8.80;99.90;;;;;;5046780;28;20201;-83
2023/11/23 06:51:39;;;;;;;39.47;9.30;;;8.80;99.90;;;;;;5048013;28;20471;-83
2023/11/23 06:54:05;;;;;;;40.20;10.35;;;8.80;99.90;;;;;;5029671;28;20200;-83
2023/11/23 06:56:32;;;;;;;36.05;9.85;;;8.80;99.90;;;;;;5046127;28;20173;-83
2023/11/23 06:58:58;;;;;;;40.47;11.02;;;8.90;99.90;;;;;;5046046;28;20226;-83
2023/11/23 07:01:23;;;;;;;37.25;9.73;;;8.90;99.90;;;;;;5047252;28;20166;-84
2023/11/23 07:03:50;;;;;;;38.97;10.40;;;8.90;99.90;;;;;;5029655;28;20293;-83
2023/11/23 07:06:18;;;;;;;40.58;11.05;;;8.90;99.90;;;;;;5047361;28;20539;-83
2023/11/23 07:08:43;;;;;;;37.75;11.40;;;8.90;99.90;;;;;;5029824;28;20170;-83
2023/11/23 07:11:17;;;;;;;38.77;10.73;;;8.90;99.90;;;;;;5030480;28;20247;-84
2023/11/23 07:13:43;;;;;;;38.67;11.18;;;8.90;99.90;;;;;;5050694;28;20190;-83
2023/11/23 07:16:13;;;;;;;40.40;10.73;;;8.90;99.90;;;;;;5051192;28;20196;-83
2023/11/23 07:18:42;;;;;;;37.20;10.80;;;9.00;99.90;;;;;;5016558;28;20220;-82
2023/11/23 07:21:08;;;;;;;48.60;16.00;;;9.00;99.90;;;;;;5038248;28;20417;-82
2023/11/23 07:23:37;;;;;;;44.37;11.93;;;9.00;99.90;;;;;;5037366;28;20860;-82
2023/11/23 07:26:06;;;;;;;43.78;11.52;;;9.00;99.90;;;;;;5037498;28;20190;-82
2023/11/23 07:28:32;;;;;;;44.03;12.55;;;9.10;99.90;;;;;;5019586;28;20208;-82
2023/11/23 07:30:58;;;;;;;42.83;10.50;;;9.00;99.90;;;;;;5019427;28;20170;-83
2023/11/23 07:33:29;;;;;;;42.30;11.90;;;9.10;99.90;;;;;;5037476;28;20428;-82
2023/11/23 07:35:55;;;;;;;42.38;11.05;;;9.10;99.90;;;;;;5037540;28;20146;-81
2023/11/23 07:38:24;;;;;;;42.00;11.07;;;9.10;99.90;;;;;;5019688;28;20173;-83
2023/11/23 07:40:51;;;;;;;39.30;12.23;;;9.10;99.90;;;;;;5019590;28;20778;-82
2023/11/23 07:43:17;;;;;;;45.30;10.27;;;9.10;99.90;;;;;;5037283;28;20257;-82
2023/11/23 07:45:43;;;;;;;39.60;10.90;;;9.10;99.90;;;;;;5037227;28;20173;-82
2023/11/23 07:48:08;;;;;;;45.00;11.63;;;9.20;99.90;;;;;;5037443;28;20249;-82
2023/11/23 07:50:43;;;;;;;42.40;11.97;;;9.20;99.90;;;;;;5037103;28;20241;-83
2023/11/23 07:53:09;;;;;;;40.50;10.45;;;9.20;99.90;;;;;;5019224;28;20157;-82
2023/11/23 07:55:36;;;;;;;37.97;10.97;;;9.20;99.90;;;;;;5019106;28;20193;-82
2023/11/23 07:58:02;;;;;;;40.15;12.23;;;9.20;99.90;;;;;;5036995;28;20529;-83
2023/11/23 08:00:37;;;;;;;47.00;12.10;;;9.30;99.90;;;;;;5020329;28;20262;-82
2023/11/23 08:03:04;;;;;;;49.03;11.43;;;9.30;99.90;;;;;;5018959;28;20168;-83
2023/11/23 08:05:30;;;;;;;39.88;11.38;;;9.30;99.90;;;;;;5019180;28;20174;-83
2023/11/23 08:07:58;;;;;;;40.97;11.37;;;9.30;99.90;;;;;;5036817;28;20713;-82
2023/11/23 08:10:24;;;;;;;44.55;11.98;;;9.40;99.90;;;;;;5036272;28;20575;-83
2023/11/23 08:12:50;;;;;;;37.17;10.33;;;9.40;99.90;;;;;;5037726;28;20221;-83
2023/11/23 08:15:15;;;;;;;40.37;10.80;;;9.40;99.90;;;;;;5036681;28;20186;-83
2023/11/23 08:17:41;;;;;;;41.20;11.27;;;9.50;99.90;;;;;;5019793;28;20210;-83
2023/11/23 08:20:08;;;;;;;38.60;10.47;;;9.50;99.90;;;;;;5037507;28;20197;-83
2023/11/23 08:22:38;;;;;;;40.33;10.93;;;9.50;99.90;;;;;;5036704;28;20416;-83
2023/11/23 08:25:04;;;;;;;40.88;10.88;;;9.60;99.90;;;;;;5019879;28;20212;-83
2023/11/23 08:27:30;;;;;;;39.97;9.73;;;9.60;99.90;;;;;;5037057;28;20648;-83
2023/11/23 08:29:56;;;;;;;39.77;10.80;;;9.60;99.90;;;;;;5019236;28;20204;-83
2023/11/23 08:32:22;;;;;;;43.50;11.40;;;9.70;99.90;;;;;;5036959;28;20201;-82
2023/11/23 08:34:52;;;;;;;39.63;11.25;;;9.70;99.90;;;;;;5036619;28;20558;-83
2023/11/23 08:37:18;;;;;;;36.83;9.48;;;9.70;99.90;;;;;;5036988;28;20164;-83
2023/11/23 08:39:55;;;;;;;38.38;10.48;;;9.70;99.90;;;;;;5036516;28;20188;-83
2023/11/23 08:42:21;;;;;;;38.22;10.30;;;9.70;99.90;;;;;;5036254;28;20209;-83
2023/11/23 08:44:47;;;;;;;38.72;9.55;;;9.80;99.90;;;;;;5036572;28;20193;-82
2023/11/23 08:47:13;;;;;;;38.70;10.50;;;9.80;99.90;;;;;;5036279;28;20667;-83
2023/11/23 08:49:41;;;;;;;43.83;10.40;;;9.90;99.90;;;;;;5035999;28;20196;-83
2023/11/23 08:52:07;;;;;;;37.55;9.50;;;9.90;99.90;;;;;;5036275;28;20218;-83
2023/11/23 08:54:34;;;;;;;39.70;10.40;;;9.90;99.90;;;;;;5036227;28;20197;-82
2023/11/23 08:57:01;;;;;;;40.80;10.65;;;10.00;99.90;;;;;;5018075;28;20659;-83
2023/11/23 08:59:27;;;;;;;33.83;9.20;;;10.00;99.90;;;;;;5036005;28;20175;-82
2023/11/23 09:01:52;;;;;;;35.90;9.60;;;10.00;99.90;;;;;;5036442;28;20528;-83
2023/11/23 09:04:18;;;;;;;37.23;10.00;;;10.00;99.90;;;;;;5036138;28;20504;-83
2023/11/23 09:06:44;;;;;;;38.00;10.37;;;10.00;99.90;;;;;;5035663;28;20674;-83
2023/11/23 09:09:12;;;;;;;37.70;10.27;;;10.00;99.90;;;;;;5035825;28;20428;-83
2023/11/23 09:11:37;;;;;;;36.20;9.85;;;10.10;99.90;;;;;;5035885;28;20593;-82
2023/11/23 09:14:03;;;;;;;34.80;9.53;;;10.10;99.90;;;;;;5036267;28;20236;-83
2023/11/23 09:16:29;;;;;;;37.80;11.27;;;10.10;99.90;;;;;;5035392;28;20220;-83
2023/11/23 09:18:55;;;;;;;43.05;10.23;;;10.10;99.90;;;;;;5036150;28;20572;-82
2023/11/23 09:21:21;;;;;;;40.67;10.93;;;10.10;99.90;;;;;;5035413;28;20193;-83
2023/11/23 09:23:47;;;;;;;39.13;9.90;;;10.10;99.90;;;;;;5036008;28;20361;-83
2023/11/23 09:26:13;;;;;;;35.03;9.67;;;10.10;99.90;;;;;;5018822;28;20572;-83
2023/11/23 09:28:38;;;;;;;35.20;8.70;;;10.10;99.90;;;;;;5035649;28;20197;-83
2023/11/23 09:31:04;;;;;;;34.13;8.80;;;10.20;99.90;;;;;;5018021;28;20174;-83
2023/11/23 09:33:31;;;;;;;36.93;10.33;;;10.20;99.90;;;;;;5016737;28;20224;-83
2023/11/23 09:36:01;;;;;;;35.55;9.60;;;10.20;99.90;;;;;;5035653;28;20174;-83
2023/11/23 09:38:27;;;;;;;37.65;9.45;;;10.20;99.90;;;;;;5035759;28;20229;-83
2023/11/23 09:40:58;;;;;;;32.90;8.88;;;10.30;99.90;;;;;;5035476;28;20531;-83
2023/11/23 09:43:24;;;;;;;35.28;8.90;;;10.30;99.90;;;;;;5035369;28;20561;-83
2023/11/23 09:45:50;;;;;;;36.67;7.50;;;10.30;99.90;;;;;;5035772;28;20165;-83
2023/11/23 09:48:18;;;;;;;35.58;10.32;;;10.30;99.90;;;;;;5017589;28;20170;-82
2023/11/23 09:50:47;;;;;;;35.55;8.13;;;10.40;99.90;;;;;;5017942;28;20168;-83
2023/11/23 09:53:16;;;;;;;33.53;8.68;;;10.40;99.90;;;;;;5036250;28;20205;-84
2023/11/23 09:55:45;;;;;;;38.30;9.43;;;10.40;99.90;;;;;;5017504;28;20212;-83
2023/11/23 09:58:14;;;;;;;36.67;8.60;;;10.40;99.90;;;;;;5035547;28;20166;-83
2023/11/23 10:00:42;;;;;;;38.35;8.65;;;10.50;99.90;;;;;;5035425;28;20157;-82
2023/11/23 10:03:11;;;;;;;32.72;8.10;;;10.60;99.90;;;;;;5034983;28;20169;-83
2023/11/23 10:05:41;;;;;;;34.03;8.38;;;10.60;99.90;;;;;;5035280;28;20170;-83
2023/11/23 10:08:09;;;;;;;34.13;8.32;;;10.70;99.90;;;;;;5017624;28;20598;-83
2023/11/23 10:10:40;;;;;;;30.42;7.32;;;10.70;99.90;;;;;;5035114;28;20162;-83
2023/11/23 10:13:09;;;;;;;30.77;7.78;;;10.80;99.90;;;;;;5035319;28;20661;-84
2023/11/23 10:15:46;;;;;;;;;;;;;;;;;;;;;
2023/11/23 10:18:12;;;;;;;31.05;7.28;;;10.90;99.90;;;;;;5035718;28;20165;-83
2023/11/23 10:20:43;;;;;;;29.17;7.03;;;10.90;99.90;;;;;;5035574;28;20189;-83
2023/11/23 10:23:09;;;;;;;34.15;7.90;;;10.90;99.90;;;;;;5035018;28;20466;-83
2023/11/23 10:25:40;;;;;;;33.30;7.80;;;10.90;99.90;;;;;;5035513;28;20162;-83
2023/11/23 10:28:07;;;;;;;34.50;8.30;;;10.90;99.90;;;;;;5017256;28;20499;-83
2023/11/23 10:30:39;;;;;;;30.20;7.40;;;10.90;99.90;;;;;;5034862;28;20636;-83
2023/11/23 10:33:05;;;;;;;29.38;7.22;;;10.90;99.90;;;;;;5016957;28;20663;-82
2023/11/23 10:35:55;;;;;;;32.13;6.85;;;10.90;99.90;;;;;;5035089;28;20193;-83
2023/11/23 10:38:23;;;;;;;32.28;7.53;;;10.90;99.90;;;;;;5017180;28;20198;-83
2023/11/23 10:40:52;;;;;;;32.40;7.43;;;11.00;99.90;;;;;;5034465;28;20158;-83
2023/11/23 10:43:30;;;;;;;30.98;7.00;;;11.00;99.90;;;;;;5034629;28;20174;-83
2023/11/23 10:45:57;;;;;;;35.53;6.93;;;10.90;99.90;;;;;;5038458;28;20160;-82
2023/11/23 10:48:24;;;;;;;29.55;6.38;;;10.90;99.90;;;;;;5021084;28;20173;-83
2023/11/23 10:50:50;;;;;;;30.38;6.53;;;10.90;99.90;;;;;;5038890;28;20166;-82
2023/11/23 10:53:19;;;;;;;31.40;6.20;;;10.90;99.90;;;;;;5038393;28;20180;-83
2023/11/23 10:55:58;;;;;;;33.05;7.43;;;10.90;99.90;;;;;;5020770;28;20455;-83
2023/11/23 10:58:25;;;;;;;32.85;7.32;;;10.90;99.90;;;;;;5020727;28;20181;-83
2023/11/23 11:00:51;;;;;;;30.13;6.60;;;10.80;99.90;;;;;;5038594;28;20193;-82
2023/11/23 11:03:18;;;;;;;32.05;7.82;;;10.90;99.90;;;;;;5038318;28;20176;-82
2023/11/23 11:05:49;;;;;;;36.30;7.25;;;10.80;99.90;;;;;;5039145;28;20182;-83
2023/11/23 11:08:27;;;;;;;37.67;6.72;;;10.90;99.90;;;;;;5038556;28;20212;-83
2023/11/23 11:10:55;;;;;;;31.42;6.82;;;10.80;99.90;;;;;;5038368;28;20172;-83
2023/11/23 11:13:23;;;;;;;29.75;6.00;;;10.90;99.90;;;;;;5038205;28;20154;-82
2023/11/23 11:15:55;;;;;;;29.73;6.72;;;10.80;99.90;;;;;;5037981;28;20159;-82
2023/11/23 11:18:26;;;;;;;33.65;7.13;;;10.90;99.90;;;;;;5038338;28;20282;-83
2023/11/23 11:21:11;;;;;;;30.13;5.78;;;10.90;99.90;;;;;;5038228;28;20510;-82
2023/11/23 11:23:44;;;;;;;31.55;7.05;;;10.90;99.90;;;;;;5038161;28;20189;-83
2023/11/23 11:26:30;;;;;;;29.63;6.00;;;10.90;99.90;;;;;;5038051;28;20159;-82
2023/11/23 11:29:00;;;;;;;31.50;5.70;;;10.90;99.90;;;;;;5020551;28;20177;-83
2023/11/23 11:31:35;;;;;;;29.08;6.00;;;10.90;99.90;;;;;;5037815;28;20189;-82
2023/11/23 11:34:21;;;;;;;31.55;5.85;;;10.90;99.90;;;;;;5020048;28;20324;-83
2023/11/23 11:36:54;;;;;;;30.38;6.53;;;11.00;99.90;;;;;;5020170;28;20162;-82
2023/11/23 11:39:19;;;;;;;28.48;5.43;;;10.90;99.90;;;;;;5020012;28;20205;-83
2023/11/23 11:41:47;;;;;;;31.63;6.10;;;10.90;99.90;;;;;;5019838;28;20181;-82
2023/11/23 11:44:15;;;;;;;31.30;6.65;;;10.90;99.90;;;;;;5037328;28;20186;-82
2023/11/23 11:46:41;;;;;;;30.65;6.53;;;10.90;99.90;;;;;;5037736;28;20166;-83
2023/11/23 11:49:12;;;;;;;28.10;5.70;;;10.90;99.90;;;;;;5037561;28;20192;-83
2023/11/23 11:51:38;;;;;;;31.17;6.00;;;11.00;99.90;;;;;;5037146;28;20598;-83
2023/11/23 11:54:06;;;;;;;31.73;5.80;;;11.00;99.90;;;;;;5037268;28;20571;-82
2023/11/23 11:56:32;;;;;;;32.42;6.65;;;11.00;99.90;;;;;;5036707;28;20254;-82
2023/11/23 11:58:59;;;;;;;31.02;6.70;;;11.00;99.90;;;;;;5037303;28;20166;-83
2023/11/23 12:01:25;;;;;;;29.95;6.30;;;11.00;99.90;;;;;;5037313;28;20233;-82
2023/11/23 12:03:50;;;;;;;32.30;6.68;;;11.00;99.90;;;;;;5037155;28;20197;-82
2023/11/23 12:06:20;;;;;;;30.40;6.00;;;11.00;99.90;;;;;;5037422;28;20169;-83
2023/11/23 12:08:45;;;;;;;34.35;6.75;;;11.10;99.90;;;;;;5037146;28;20170;-82
2023/11/23 12:11:25;;;;;;;29.97;6.47;;;11.00;99.90;;;;;;5019263;28;20662;-83
2023/11/23 12:13:54;;;;;;;30.60;5.45;;;11.00;99.90;;;;;;5019061;28;20480;-82
2023/11/23 12:16:41;;;;;;;30.05;6.80;;;11.10;99.90;;;;;;5036903;28;20184;-83
2023/11/23 12:19:17;;;;;;;28.33;5.63;;;11.00;99.90;;;;;;5037382;28;20173;-82
2023/11/23 12:21:42;;;;;;;31.23;6.60;;;11.10;99.90;;;;;;5037229;28;20173;-82
2023/11/23 12:24:09;;;;;;;36.10;6.73;;;11.10;99.90;;;;;;5037238;28;20185;-82
2023/11/23 12:26:37;;;;;;;28.05;5.95;;;11.10;99.90;;;;;;5036788;28;20174;-83
2023/11/23 12:29:04;;;;;;;31.70;6.30;;;11.10;99.90;;;;;;5019523;28;20174;-82
2023/11/23 12:31:29;;;;;;;37.17;5.85;;;11.10;99.90;;;;;;5036632;28;20531;-82
2023/11/23 12:33:55;;;;;;;29.97;6.97;;;11.10;99.90;;;;;;5036435;28;20262;-81
2023/11/23 12:36:21;;;;;;;30.40;6.13;;;11.10;99.90;;;;;;5036779;28;20636;-82
2023/11/23 12:38:46;;;;;;;33.50;6.43;;;11.10;99.90;;;;;;5018994;28;20267;-82
2023/11/23 12:41:12;;;;;;;28.80;6.20;;;11.10;99.90;;;;;;5036435;28;20166;-82
2023/11/23 12:43:38;;;;;;;32.63;6.07;;;11.10;99.90;;;;;;5036404;28;20181;-83